Terminal Aerodrome Forecast
Issued by NWS Flagstaff, AZ

Home | Current Version | Previous Version | Text Only | Print | Product List | Glossary On
Versions: 1 2 3 4 5 6 7 8 9 10 11 12 13 14 15 16 17
000
FTUS45 KFGZ 230114 AAA
TAFFLG
TAF AMD
KFLG 230114Z 2301/2324 19010G20KT P6SM VCTS SCT030CB BKN060
      TEMPO 2301/2303 VRB20G30KT 5SM -TSRA BKN030CB OVC060
     FM230300 VRB05KT P6SM BKN030
     FM231800 22012G18KT P6SM BKN040 PROB30 2318/2324 5SM -SHRA
      OVC030=

USA.gov is the U.S. government's official web portal to all federal, state and local government web resources and services.